sensor_id;sensor_type;location;lat;lon;timestamp;P1;durP1;ratioP1;P2;durP2;ratioP2
823;SDS011;373;49.342;8.146;2022-10-28T02:16:23;7.35;;;5.90;;
823;SDS011;373;49.342;8.146;2022-10-28T02:18:58;6.60;;;5.70;;
823;SDS011;373;49.342;8.146;2022-10-28T02:21:33;6.55;;;4.35;;
823;SDS011;373;49.342;8.146;2022-10-28T02:24:12;6.50;;;4.68;;
823;SDS011;373;49.342;8.146;2022-10-28T02:26:45;6.68;;;4.53;;
823;SDS011;373;49.342;8.146;2022-10-28T02:29:19;6.72;;;4.55;;
823;SDS011;373;49.342;8.146;2022-10-28T02:31:56;7.13;;;5.00;;
823;SDS011;373;49.342;8.146;2022-10-28T02:34:26;8.93;;;5.30;;
823;SDS011;373;49.342;8.146;2022-10-28T02:36:56;6.95;;;4.43;;
823;SDS011;373;49.342;8.146;2022-10-28T02:39:27;5.13;;;4.43;;
823;SDS011;373;49.342;8.146;2022-10-28T02:41:59;6.63;;;4.70;;
823;SDS011;373;49.342;8.146;2022-10-28T02:44:30;8.93;;;5.10;;
823;SDS011;373;49.342;8.146;2022-10-28T02:47:03;7.50;;;4.25;;
823;SDS011;373;49.342;8.146;2022-10-28T02:49:34;6.10;;;4.35;;
823;SDS011;373;49.342;8.146;2022-10-28T02:52:05;6.05;;;3.83;;
823;SDS011;373;49.342;8.146;2022-10-28T02:54:34;7.85;;;4.00;;
823;SDS011;373;49.342;8.146;2022-10-28T02:57:05;5.72;;;4.45;;
823;SDS011;373;49.342;8.146;2022-10-28T02:59:35;5.25;;;4.20;;
823;SDS011;373;49.342;8.146;2022-10-28T03:02:04;6.50;;;3.95;;
823;SDS011;373;49.342;8.146;2022-10-28T03:04:31;7.13;;;4.88;;
823;SDS011;373;49.342;8.146;2022-10-28T03:06:58;5.75;;;4.28;;
823;SDS011;373;49.342;8.146;2022-10-28T03:09:25;5.10;;;3.83;;
823;SDS011;373;49.342;8.146;2022-10-28T03:11:52;8.20;;;4.70;;
823;SDS011;373;49.342;8.146;2022-10-28T03:14:19;9.90;;;4.88;;
823;SDS011;373;49.342;8.146;2022-10-28T03:16:48;4.95;;;4.00;;
823;SDS011;373;49.342;8.146;2022-10-28T03:19:16;6.75;;;4.47;;
823;SDS011;373;49.342;8.146;2022-10-28T03:21:43;8.80;;;4.22;;
823;SDS011;373;49.342;8.146;2022-10-28T03:24:10;4.60;;;4.20;;
823;SDS011;373;49.342;8.146;2022-10-28T03:26:38;5.07;;;4.18;;
823;SDS011;373;49.342;8.146;2022-10-28T03:29:05;5.43;;;3.65;;
823;SDS011;373;49.342;8.146;2022-10-28T03:31:32;6.78;;;4.25;;
823;SDS011;373;49.342;8.146;2022-10-28T03:33:59;4.72;;;4.22;;
823;SDS011;373;49.342;8.146;2022-10-28T03:36:27;4.30;;;3.90;;
823;SDS011;373;49.342;8.146;2022-10-28T03:38:55;5.13;;;3.67;;
823;SDS011;373;49.342;8.146;2022-10-28T03:41:22;6.05;;;4.47;;
823;SDS011;373;49.342;8.146;2022-10-28T03:43:49;6.57;;;4.93;;
823;SDS011;373;49.342;8.146;2022-10-28T03:46:16;9.25;;;4.55;;
823;SDS011;373;49.342;8.146;2022-10-28T03:48:43;7.82;;;4.85;;
823;SDS011;373;49.342;8.146;2022-10-28T03:51:12;6.38;;;4.25;;
823;SDS011;373;49.342;8.146;2022-10-28T03:53:41;7.72;;;4.95;;
823;SDS011;373;49.342;8.146;2022-10-28T03:56:08;7.40;;;4.95;;
823;SDS011;373;49.342;8.146;2022-10-28T03:58:37;5.43;;;4.95;;
823;SDS011;373;49.342;8.146;2022-10-28T04:01:04;7.05;;;4.70;;
823;SDS011;373;49.342;8.146;2022-10-28T04:03:31;8.18;;;4.60;;
823;SDS011;373;49.342;8.146;2022-10-28T04:05:58;7.55;;;5.38;;
823;SDS011;373;49.342;8.146;2022-10-28T04:08:26;7.50;;;5.30;;
823;SDS011;373;49.342;8.146;2022-10-28T04:10:54;5.63;;;5.00;;
823;SDS011;373;49.342;8.146;2022-10-28T04:13:21;9.07;;;5.18;;
823;SDS011;373;49.342;8.146;2022-10-28T04:15:48;12.52;;;6.10;;
823;SDS011;373;49.342;8.146;2022-10-28T04:18:15;7.78;;;5.20;;
823;SDS011;373;49.342;8.146;2022-10-28T04:20:43;8.88;;;5.47;;
823;SDS011;373;49.342;8.146;2022-10-28T04:23:13;5.80;;;4.85;;
823;SDS011;373;49.342;8.146;2022-10-28T04:25:42;5.78;;;4.95;;
823;SDS011;373;49.342;8.146;2022-10-28T04:28:11;8.70;;;5.53;;
823;SDS011;373;49.342;8.146;2022-10-28T04:30:38;9.00;;;5.57;;
823;SDS011;373;49.342;8.146;2022-10-28T04:33:05;8.70;;;5.85;;
823;SDS011;373;49.342;8.146;2022-10-28T04:35:32;9.00;;;6.35;;
823;SDS011;373;49.342;8.146;2022-10-28T04:37:59;8.75;;;5.57;;
823;SDS011;373;49.342;8.146;2022-10-28T04:40:26;10.10;;;6.07;;
823;SDS011;373;49.342;8.146;2022-10-28T04:42:54;7.65;;;5.72;;
823;SDS011;373;49.342;8.146;2022-10-28T04:45:22;7.30;;;5.38;;
823;SDS011;373;49.342;8.146;2022-10-28T04:47:52;6.07;;;5.20;;
823;SDS011;373;49.342;8.146;2022-10-28T04:50:22;7.00;;;4.82;;
823;SDS011;373;49.342;8.146;2022-10-28T04:52:49;5.65;;;4.88;;
823;SDS011;373;49.342;8.146;2022-10-28T04:55:16;6.82;;;5.65;;
823;SDS011;373;49.342;8.146;2022-10-28T04:57:44;7.30;;;5.80;;
823;SDS011;373;49.342;8.146;2022-10-28T05:00:18;7.30;;;5.70;;
823;SDS011;373;49.342;8.146;2022-10-28T05:02:47;8.23;;;5.70;;
823;SDS011;373;49.342;8.146;2022-10-28T05:05:15;6.93;;;5.22;;
823;SDS011;373;49.342;8.146;2022-10-28T05:07:42;9.95;;;4.78;;
823;SDS011;373;49.342;8.146;2022-10-28T05:10:10;8.38;;;6.38;;
823;SDS011;373;49.342;8.146;2022-10-28T05:12:40;7.72;;;5.15;;
823;SDS011;373;49.342;8.146;2022-10-28T05:15:08;7.80;;;4.95;;
823;SDS011;373;49.342;8.146;2022-10-28T05:17:37;8.00;;;5.22;;
823;SDS011;373;49.342;8.146;2022-10-28T05:20:08;8.85;;;5.18;;
823;SDS011;373;49.342;8.146;2022-10-28T05:22:36;6.30;;;4.75;;
823;SDS011;373;49.342;8.146;2022-10-28T05:25:03;8.50;;;5.53;;
823;SDS011;373;49.342;8.146;2022-10-28T05:27:31;8.80;;;5.07;;
823;SDS011;373;49.342;8.146;2022-10-28T05:29:58;14.50;;;6.07;;
823;SDS011;373;49.342;8.146;2022-10-28T05:32:25;6.50;;;5.78;;
823;SDS011;373;49.342;8.146;2022-10-28T05:37:24;9.65;;;7.28;;
823;SDS011;373;49.342;8.146;2022-10-28T05:39:51;8.32;;;6.15;;
823;SDS011;373;49.342;8.146;2022-10-28T05:42:19;10.98;;;7.35;;
823;SDS011;373;49.342;8.146;2022-10-28T05:44:46;12.07;;;7.28;;
823;SDS011;373;49.342;8.146;2022-10-28T05:47:13;8.02;;;5.60;;
823;SDS011;373;49.342;8.146;2022-10-28T05:49:40;6.18;;;4.43;;
823;SDS011;373;49.342;8.146;2022-10-28T05:52:07;8.18;;;5.43;;
823;SDS011;373;49.342;8.146;2022-10-28T05:54:36;7.53;;;5.47;;
823;SDS011;373;49.342;8.146;2022-10-28T05:57:03;8.57;;;6.03;;
823;SDS011;373;49.342;8.146;2022-10-28T05:59:30;7.40;;;5.20;;
823;SDS011;373;49.342;8.146;2022-10-28T06:01:57;8.80;;;4.90;;
823;SDS011;373;49.342;8.146;2022-10-28T06:04:24;8.55;;;5.35;;
823;SDS011;373;49.342;8.146;2022-10-28T06:06:52;7.90;;;5.30;;
823;SDS011;373;49.342;8.146;2022-10-28T06:09:20;6.95;;;5.15;;
823;SDS011;373;49.342;8.146;2022-10-28T06:11:48;6.60;;;5.43;;
823;SDS011;373;49.342;8.146;2022-10-28T06:14:15;8.32;;;4.47;;
823;SDS011;373;49.342;8.146;2022-10-28T06:16:42;7.15;;;4.55;;
823;SDS011;373;49.342;8.146;2022-10-28T06:19:11;8.00;;;5.03;;
823;SDS011;373;49.342;8.146;2022-10-28T06:21:38;6.75;;;4.47;;
823;SDS011;373;49.342;8.146;2022-10-28T06:24:05;6.28;;;5.05;;
823;SDS011;373;49.342;8.146;2022-10-28T06:26:33;7.88;;;5.03;;
823;SDS011;373;49.342;8.146;2022-10-28T06:29:01;9.43;;;5.30;;
823;SDS011;373;49.342;8.146;2022-10-28T06:31:29;6.47;;;4.60;;
823;SDS011;373;49.342;8.146;2022-10-28T06:33:57;5.93;;;5.28;;
823;SDS011;373;49.342;8.146;2022-10-28T06:36:24;10.10;;;5.18;;
823;SDS011;373;49.342;8.146;2022-10-28T06:38:51;9.77;;;5.40;;
823;SDS011;373;49.342;8.146;2022-10-28T06:41:19;12.10;;;6.43;;
823;SDS011;373;49.342;8.146;2022-10-28T06:43:46;7.55;;;5.68;;
823;SDS011;373;49.342;8.146;2022-10-28T06:46:14;9.50;;;6.40;;
823;SDS011;373;49.342;8.146;2022-10-28T06:48:42;9.23;;;5.88;;
823;SDS011;373;49.342;8.146;2022-10-28T06:51:09;8.40;;;6.30;;
823;SDS011;373;49.342;8.146;2022-10-28T06:53:36;6.95;;;5.90;;
823;SDS011;373;49.342;8.146;2022-10-28T06:56:03;10.27;;;7.03;;
823;SDS011;373;49.342;8.146;2022-10-28T06:58:31;12.43;;;6.55;;
823;SDS011;373;49.342;8.146;2022-10-28T07:01:01;7.60;;;6.43;;
823;SDS011;373;49.342;8.146;2022-10-28T07:03:30;9.77;;;7.35;;
823;SDS011;373;49.342;8.146;2022-10-28T07:05:58;12.05;;;6.25;;
823;SDS011;373;49.342;8.146;2022-10-28T07:08:26;9.10;;;6.88;;
823;SDS011;373;49.342;8.146;2022-10-28T07:10:53;8.20;;;6.07;;
823;SDS011;373;49.342;8.146;2022-10-28T07:13:21;10.63;;;7.13;;
823;SDS011;373;49.342;8.146;2022-10-28T07:15:51;8.02;;;6.25;;
823;SDS011;373;49.342;8.146;2022-10-28T07:18:19;8.13;;;6.50;;
823;SDS011;373;49.342;8.146;2022-10-28T07:20:48;9.80;;;6.80;;
823;SDS011;373;49.342;8.146;2022-10-28T07:23:15;9.02;;;6.72;;
823;SDS011;373;49.342;8.146;2022-10-28T07:25:42;9.00;;;7.38;;
823;SDS011;373;49.342;8.146;2022-10-28T07:28:16;9.60;;;7.57;;
823;SDS011;373;49.342;8.146;2022-10-28T07:30:43;10.65;;;6.57;;
823;SDS011;373;49.342;8.146;2022-10-28T07:33:10;10.00;;;7.07;;
823;SDS011;373;49.342;8.146;2022-10-28T07:35:37;10.75;;;7.88;;
823;SDS011;373;49.342;8.146;2022-10-28T07:38:06;10.65;;;6.63;;
823;SDS011;373;49.342;8.146;2022-10-28T07:40:33;11.55;;;7.75;;
823;SDS011;373;49.342;8.146;2022-10-28T07:43:00;8.25;;;6.65;;
823;SDS011;373;49.342;8.146;2022-10-28T07:45:27;10.23;;;7.20;;
823;SDS011;373;49.342;8.146;2022-10-28T07:47:54;10.18;;;6.55;;
823;SDS011;373;49.342;8.146;2022-10-28T07:50:21;11.73;;;7.72;;
823;SDS011;373;49.342;8.146;2022-10-28T07:52:48;11.68;;;7.18;;
823;SDS011;373;49.342;8.146;2022-10-28T07:55:17;12.25;;;8.15;;
823;SDS011;373;49.342;8.146;2022-10-28T07:57:45;10.00;;;8.27;;
823;SDS011;373;49.342;8.146;2022-10-28T08:00:12;10.70;;;8.10;;
823;SDS011;373;49.342;8.146;2022-10-28T08:02:40;9.45;;;7.28;;
823;SDS011;373;49.342;8.146;2022-10-28T08:05:07;9.65;;;7.75;;
823;SDS011;373;49.342;8.146;2022-10-28T08:07:35;13.02;;;8.75;;
823;SDS011;373;49.342;8.146;2022-10-28T08:10:02;8.32;;;7.53;;
823;SDS011;373;49.342;8.146;2022-10-28T08:12:31;9.02;;;8.10;;
823;SDS011;373;49.342;8.146;2022-10-28T08:14:58;9.10;;;7.82;;
823;SDS011;373;49.342;8.146;2022-10-28T08:17:26;12.40;;;7.97;;
823;SDS011;373;49.342;8.146;2022-10-28T08:19:53;12.15;;;8.18;;
823;SDS011;373;49.342;8.146;2022-10-28T08:22:20;11.07;;;7.55;;
823;SDS011;373;49.342;8.146;2022-10-28T08:24:48;10.13;;;7.93;;
823;SDS011;373;49.342;8.146;2022-10-28T08:27:15;8.20;;;7.35;;
823;SDS011;373;49.342;8.146;2022-10-28T08:29:43;13.75;;;7.47;;
823;SDS011;373;49.342;8.146;2022-10-28T08:32:10;9.80;;;7.10;;
823;SDS011;373;49.342;8.146;2022-10-28T08:34:37;8.82;;;7.53;;
823;SDS011;373;49.342;8.146;2022-10-28T08:37:04;10.75;;;7.80;;
823;SDS011;373;49.342;8.146;2022-10-28T08:39:31;8.68;;;7.30;;
823;SDS011;373;49.342;8.146;2022-10-28T08:42:01;8.32;;;6.75;;
823;SDS011;373;49.342;8.146;2022-10-28T08:44:54;12.18;;;7.97;;
823;SDS011;373;49.342;8.146;2022-10-28T08:47:32;9.82;;;7.10;;
823;SDS011;373;49.342;8.146;2022-10-28T08:50:09;9.80;;;7.10;;
823;SDS011;373;49.342;8.146;2022-10-28T08:52:40;7.68;;;6.72;;
823;SDS011;373;49.342;8.146;2022-10-28T08:55:13;9.40;;;7.65;;
823;SDS011;373;49.342;8.146;2022-10-28T08:57:45;10.73;;;6.80;;
823;SDS011;373;49.342;8.146;2022-10-28T09:00:20;9.02;;;7.80;;
823;SDS011;373;49.342;8.146;2022-10-28T09:02:54;9.02;;;7.65;;
823;SDS011;373;49.342;8.146;2022-10-28T09:05:27;13.88;;;9.40;;
823;SDS011;373;49.342;8.146;2022-10-28T09:07:54;9.40;;;7.82;;
823;SDS011;373;49.342;8.146;2022-10-28T09:10:29;9.88;;;7.88;;
823;SDS011;373;49.342;8.146;2022-10-28T09:13:21;8.77;;;7.07;;
823;SDS011;373;49.342;8.146;2022-10-28T09:15:56;8.02;;;6.85;;
823;SDS011;373;49.342;8.146;2022-10-28T09:18:39;9.63;;;7.05;;
823;SDS011;373;49.342;8.146;2022-10-28T09:21:17;8.43;;;6.35;;
823;SDS011;373;49.342;8.146;2022-10-28T09:23:48;8.27;;;6.88;;
823;SDS011;373;49.342;8.146;2022-10-28T09:26:23;10.50;;;7.00;;
823;SDS011;373;49.342;8.146;2022-10-28T09:29:03;10.57;;;7.20;;
823;SDS011;373;49.342;8.146;2022-10-28T09:31:41;11.15;;;7.65;;
823;SDS011;373;49.342;8.146;2022-10-28T09:34:14;8.80;;;7.05;;
823;SDS011;373;49.342;8.146;2022-10-28T09:36:47;10.95;;;7.32;;
823;SDS011;373;49.342;8.146;2022-10-28T09:39:19;7.88;;;6.88;;
823;SDS011;373;49.342;8.146;2022-10-28T09:41:50;10.50;;;6.70;;
823;SDS011;373;49.342;8.146;2022-10-28T09:44:20;9.68;;;6.40;;
823;SDS011;373;49.342;8.146;2022-10-28T09:46:54;7.30;;;6.55;;
823;SDS011;373;49.342;8.146;2022-10-28T09:49:25;8.80;;;6.53;;
823;SDS011;373;49.342;8.146;2022-10-28T09:51:56;8.40;;;5.50;;
823;SDS011;373;49.342;8.146;2022-10-28T09:54:31;7.30;;;5.85;;
823;SDS011;373;49.342;8.146;2022-10-28T09:57:01;6.03;;;5.13;;
823;SDS011;373;49.342;8.146;2022-10-28T09:59:29;11.77;;;6.80;;
823;SDS011;373;49.342;8.146;2022-10-28T10:01:58;9.70;;;6.03;;
823;SDS011;373;49.342;8.146;2022-10-28T10:04:26;8.15;;;5.90;;
823;SDS011;373;49.342;8.146;2022-10-28T10:06:56;8.10;;;6.43;;
823;SDS011;373;49.342;8.146;2022-10-28T10:09:28;8.95;;;6.70;;
823;SDS011;373;49.342;8.146;2022-10-28T10:11:58;7.60;;;5.97;;
823;SDS011;373;49.342;8.146;2022-10-28T10:14:28;8.32;;;5.65;;
823;SDS011;373;49.342;8.146;2022-10-28T10:17:02;9.85;;;6.93;;
823;SDS011;373;49.342;8.146;2022-10-28T10:22:28;7.95;;;5.45;;
823;SDS011;373;49.342;8.146;2022-10-28T10:24:56;10.13;;;5.70;;
823;SDS011;373;49.342;8.146;2022-10-28T10:27:23;8.40;;;5.15;;
823;SDS011;373;49.342;8.146;2022-10-28T10:29:52;7.82;;;5.70;;
823;SDS011;373;49.342;8.146;2022-10-28T10:32:23;9.77;;;4.88;;
823;SDS011;373;49.342;8.146;2022-10-28T10:34:57;8.13;;;5.60;;
823;SDS011;373;49.342;8.146;2022-10-28T10:37:27;6.00;;;5.22;;
823;SDS011;373;49.342;8.146;2022-10-28T10:39:58;7.53;;;5.38;;
823;SDS011;373;49.342;8.146;2022-10-28T10:42:37;6.45;;;5.35;;
823;SDS011;373;49.342;8.146;2022-10-28T10:45:10;7.57;;;5.50;;
823;SDS011;373;49.342;8.146;2022-10-28T10:47:47;7.05;;;5.38;;
823;SDS011;373;49.342;8.146;2022-10-28T10:50:19;7.40;;;5.30;;
823;SDS011;373;49.342;8.146;2022-10-28T10:52:49;7.57;;;5.30;;
823;SDS011;373;49.342;8.146;2022-10-28T10:55:21;8.90;;;5.65;;
823;SDS011;373;49.342;8.146;2022-10-28T10:57:54;7.75;;;4.78;;
823;SDS011;373;49.342;8.146;2022-10-28T11:00:22;8.32;;;5.35;;
823;SDS011;373;49.342;8.146;2022-10-28T11:02:55;7.28;;;4.82;;
823;SDS011;373;49.342;8.146;2022-10-28T11:05:23;9.88;;;4.50;;
823;SDS011;373;49.342;8.146;2022-10-28T11:07:51;7.32;;;4.53;;
823;SDS011;373;49.342;8.146;2022-10-28T11:10:21;8.10;;;4.30;;
823;SDS011;373;49.342;8.146;2022-10-28T11:12:51;7.28;;;4.53;;
823;SDS011;373;49.342;8.146;2022-10-28T11:15:21;10.70;;;4.60;;
823;SDS011;373;49.342;8.146;2022-10-28T11:17:53;6.32;;;4.43;;
823;SDS011;373;49.342;8.146;2022-10-28T11:20:25;6.50;;;3.70;;
823;SDS011;373;49.342;8.146;2022-10-28T11:23:01;9.77;;;4.28;;
823;SDS011;373;49.342;8.146;2022-10-28T11:25:40;4.65;;;4.00;;
823;SDS011;373;49.342;8.146;2022-10-28T11:28:17;9.73;;;4.50;;
823;SDS011;373;49.342;8.146;2022-10-28T11:31:05;6.53;;;3.90;;
823;SDS011;373;49.342;8.146;2022-10-28T11:33:49;8.35;;;4.38;;
823;SDS011;373;49.342;8.146;2022-10-28T11:36:24;6.32;;;3.92;;
823;SDS011;373;49.342;8.146;2022-10-28T11:38:59;8.50;;;4.22;;
823;SDS011;373;49.342;8.146;2022-10-28T11:41:39;5.40;;;3.90;;
823;SDS011;373;49.342;8.146;2022-10-28T11:44:24;8.13;;;4.65;;
823;SDS011;373;49.342;8.146;2022-10-28T11:47:02;5.30;;;4.18;;
823;SDS011;373;49.342;8.146;2022-10-28T11:50:02;6.38;;;3.53;;
823;SDS011;373;49.342;8.146;2022-10-28T11:52:49;5.80;;;3.63;;
823;SDS011;373;49.342;8.146;2022-10-28T11:55:31;6.13;;;3.47;;
823;SDS011;373;49.342;8.146;2022-10-28T11:58:04;6.43;;;3.42;;
823;SDS011;373;49.342;8.146;2022-10-28T12:00:47;8.38;;;3.60;;
823;SDS011;373;49.342;8.146;2022-10-28T12:03:33;9.05;;;3.28;;
823;SDS011;373;49.342;8.146;2022-10-28T12:06:16;6.00;;;3.40;;
823;SDS011;373;49.342;8.146;2022-10-28T12:08:57;6.93;;;3.65;;
823;SDS011;373;49.342;8.146;2022-10-28T12:11:38;5.68;;;3.33;;
823;SDS011;373;49.342;8.146;2022-10-28T12:14:18;4.55;;;3.33;;
823;SDS011;373;49.342;8.146;2022-10-28T12:16:51;4.93;;;3.60;;
823;SDS011;373;49.342;8.146;2022-10-28T12:19:22;5.03;;;3.40;;
823;SDS011;373;49.342;8.146;2022-10-28T12:21:57;4.65;;;2.95;;
823;SDS011;373;49.342;8.146;2022-10-28T12:24:29;8.13;;;3.40;;
823;SDS011;373;49.342;8.146;2022-10-28T12:26:59;6.50;;;3.42;;
823;SDS011;373;49.342;8.146;2022-10-28T12:29:30;8.88;;;2.92;;
823;SDS011;373;49.342;8.146;2022-10-28T12:32:02;7.00;;;3.00;;
823;SDS011;373;49.342;8.146;2022-10-28T12:34:33;7.63;;;3.00;;
823;SDS011;373;49.342;8.146;2022-10-28T12:37:05;8.32;;;3.70;;
823;SDS011;373;49.342;8.146;2022-10-28T12:39:37;6.68;;;2.70;;
823;SDS011;373;49.342;8.146;2022-10-28T12:42:10;5.05;;;2.28;;
823;SDS011;373;49.342;8.146;2022-10-28T12:44:40;4.65;;;2.72;;
823;SDS011;373;49.342;8.146;2022-10-28T12:47:13;6.20;;;2.53;;
823;SDS011;373;49.342;8.146;2022-10-28T12:49:50;4.47;;;2.28;;
823;SDS011;373;49.342;8.146;2022-10-28T12:52:29;7.63;;;2.60;;
823;SDS011;373;49.342;8.146;2022-10-28T12:55:06;4.78;;;2.85;;
823;SDS011;373;49.342;8.146;2022-10-28T12:57:52;5.57;;;2.80;;
823;SDS011;373;49.342;8.146;2022-10-28T13:00:25;8.05;;;3.17;;
823;SDS011;373;49.342;8.146;2022-10-28T13:02:58;8.00;;;2.45;;
823;SDS011;373;49.342;8.146;2022-10-28T13:05:29;4.18;;;1.85;;
823;SDS011;373;49.342;8.146;2022-10-28T13:14:05;5.40;;;2.70;;
823;SDS011;373;49.342;8.146;2022-10-28T13:16:57;10.18;;;2.85;;
823;SDS011;373;49.342;8.146;2022-10-28T13:19:41;5.32;;;2.35;;
823;SDS011;373;49.342;8.146;2022-10-28T13:22:24;7.10;;;3.00;;
823;SDS011;373;49.342;8.146;2022-10-28T13:25:12;8.38;;;2.92;;
823;SDS011;373;49.342;8.146;2022-10-28T13:27:54;6.47;;;2.30;;
823;SDS011;373;49.342;8.146;2022-10-28T13:30:22;5.97;;;3.25;;
823;SDS011;373;49.342;8.146;2022-10-28T13:32:50;6.35;;;2.90;;
823;SDS011;373;49.342;8.146;2022-10-28T13:35:27;7.63;;;2.67;;
823;SDS011;373;49.342;8.146;2022-10-28T13:37:55;5.25;;;2.05;;
823;SDS011;373;49.342;8.146;2022-10-28T13:49:35;7.45;;;3.20;;
823;SDS011;373;49.342;8.146;2022-10-28T13:52:03;7.68;;;3.20;;
823;SDS011;373;49.342;8.146;2022-10-28T13:54:53;5.20;;;2.50;;
823;SDS011;373;49.342;8.146;2022-10-28T13:57:24;4.30;;;2.40;;
823;SDS011;373;49.342;8.146;2022-10-28T13:59:55;5.93;;;3.17;;
823;SDS011;373;49.342;8.146;2022-10-28T14:02:27;6.55;;;2.92;;
823;SDS011;373;49.342;8.146;2022-10-28T14:05:01;4.90;;;2.70;;
823;SDS011;373;49.342;8.146;2022-10-28T14:07:30;6.85;;;3.00;;
823;SDS011;373;49.342;8.146;2022-10-28T14:12:47;5.32;;;2.60;;
823;SDS011;373;49.342;8.146;2022-10-28T14:15:19;7.10;;;3.13;;
823;SDS011;373;49.342;8.146;2022-10-28T14:17:50;6.03;;;2.70;;
823;SDS011;373;49.342;8.146;2022-10-28T14:20:26;5.65;;;2.70;;
823;SDS011;373;49.342;8.146;2022-10-28T14:22:56;7.07;;;3.28;;
823;SDS011;373;49.342;8.146;2022-10-28T14:31:36;6.03;;;3.00;;
823;SDS011;373;49.342;8.146;2022-10-28T14:34:25;6.00;;;2.78;;
823;SDS011;373;49.342;8.146;2022-10-28T14:40:23;9.13;;;3.42;;
823;SDS011;373;49.342;8.146;2022-10-28T14:42:59;5.90;;;2.97;;
823;SDS011;373;49.342;8.146;2022-10-28T14:45:46;7.60;;;3.13;;
823;SDS011;373;49.342;8.146;2022-10-28T14:48:34;5.85;;;2.90;;
823;SDS011;373;49.342;8.146;2022-10-28T14:51:15;8.25;;;3.33;;
823;SDS011;373;49.342;8.146;2022-10-28T14:53:45;5.70;;;3.08;;
823;SDS011;373;49.342;8.146;2022-10-28T14:56:17;6.50;;;3.25;;
823;SDS011;373;49.342;8.146;2022-10-28T14:58:47;5.53;;;3.22;;
823;SDS011;373;49.342;8.146;2022-10-28T15:01:22;6.53;;;3.58;;
823;SDS011;373;49.342;8.146;2022-10-28T15:03:54;4.70;;;2.90;;
823;SDS011;373;49.342;8.146;2022-10-28T15:06:25;7.53;;;3.25;;
823;SDS011;373;49.342;8.146;2022-10-28T15:09:02;9.75;;;3.47;;
823;SDS011;373;49.342;8.146;2022-10-28T15:11:32;11.48;;;3.22;;
823;SDS011;373;49.342;8.146;2022-10-28T15:14:11;6.78;;;3.80;;
823;SDS011;373;49.342;8.146;2022-10-28T15:16:46;8.43;;;3.70;;
823;SDS011;373;49.342;8.146;2022-10-28T15:19:17;7.93;;;3.20;;
823;SDS011;373;49.342;8.146;2022-10-28T15:22:05;7.18;;;3.33;;
823;SDS011;373;49.342;8.146;2022-10-28T15:24:37;4.88;;;2.95;;
823;SDS011;373;49.342;8.146;2022-10-28T15:27:04;10.90;;;3.47;;
823;SDS011;373;49.342;8.146;2022-10-28T15:29:32;6.10;;;3.22;;
823;SDS011;373;49.342;8.146;2022-10-28T15:32:03;5.03;;;3.35;;
823;SDS011;373;49.342;8.146;2022-10-28T15:34:32;7.35;;;3.63;;
823;SDS011;373;49.342;8.146;2022-10-28T15:36:59;5.50;;;3.28;;
823;SDS011;373;49.342;8.146;2022-10-28T15:39:27;9.45;;;3.50;;
823;SDS011;373;49.342;8.146;2022-10-28T15:42:25;6.95;;;3.90;;
823;SDS011;373;49.342;8.146;2022-10-28T15:44:56;6.50;;;3.35;;
823;SDS011;373;49.342;8.146;2022-10-28T15:47:26;4.70;;;3.30;;
823;SDS011;373;49.342;8.146;2022-10-28T15:55:47;7.18;;;3.85;;
823;SDS011;373;49.342;8.146;2022-10-28T15:58:34;6.50;;;3.60;;
823;SDS011;373;49.342;8.146;2022-10-28T16:01:06;4.82;;;3.28;;
823;SDS011;373;49.342;8.146;2022-10-28T16:03:43;8.63;;;3.22;;
823;SDS011;373;49.342;8.146;2022-10-28T16:06:24;4.72;;;3.10;;
823;SDS011;373;49.342;8.146;2022-10-28T16:08:57;8.48;;;4.75;;
823;SDS011;373;49.342;8.146;2022-10-28T16:11:39;9.85;;;4.38;;
823;SDS011;373;49.342;8.146;2022-10-28T16:14:17;8.68;;;5.15;;
823;SDS011;373;49.342;8.146;2022-10-28T16:17:10;8.10;;;4.82;;
823;SDS011;373;49.342;8.146;2022-10-28T16:19:41;9.57;;;4.40;;
823;SDS011;373;49.342;8.146;2022-10-28T16:22:13;9.15;;;4.65;;
823;SDS011;373;49.342;8.146;2022-10-28T16:24:42;6.72;;;4.53;;
823;SDS011;373;49.342;8.146;2022-10-28T16:27:16;10.43;;;4.55;;
823;SDS011;373;49.342;8.146;2022-10-28T16:29:44;11.70;;;4.50;;
823;SDS011;373;49.342;8.146;2022-10-28T16:32:11;8.15;;;4.38;;
823;SDS011;373;49.342;8.146;2022-10-28T16:34:40;9.88;;;4.15;;
823;SDS011;373;49.342;8.146;2022-10-28T16:37:14;7.32;;;4.20;;
823;SDS011;373;49.342;8.146;2022-10-28T16:39:46;7.78;;;4.80;;
823;SDS011;373;49.342;8.146;2022-10-28T16:42:13;9.65;;;4.38;;
823;SDS011;373;49.342;8.146;2022-10-28T16:44:41;8.90;;;4.05;;
823;SDS011;373;49.342;8.146;2022-10-28T16:47:08;5.22;;;3.90;;
823;SDS011;373;49.342;8.146;2022-10-28T16:49:37;11.18;;;4.63;;
823;SDS011;373;49.342;8.146;2022-10-28T16:52:05;9.85;;;5.22;;
823;SDS011;373;49.342;8.146;2022-10-28T16:54:34;9.35;;;4.60;;
823;SDS011;373;49.342;8.146;2022-10-28T16:57:01;8.90;;;4.40;;
823;SDS011;373;49.342;8.146;2022-10-28T16:59:28;7.70;;;4.03;;
823;SDS011;373;49.342;8.146;2022-10-28T17:01:55;7.75;;;4.43;;
823;SDS011;373;49.342;8.146;2022-10-28T17:04:23;6.38;;;4.05;;
823;SDS011;373;49.342;8.146;2022-10-28T17:06:51;11.13;;;4.28;;
823;SDS011;373;49.342;8.146;2022-10-28T17:09:18;14.10;;;4.07;;
823;SDS011;373;49.342;8.146;2022-10-28T17:11:46;9.63;;;4.70;;
823;SDS011;373;49.342;8.146;2022-10-28T17:14:13;8.18;;;4.28;;
823;SDS011;373;49.342;8.146;2022-10-28T17:16:40;8.23;;;4.80;;
823;SDS011;373;49.342;8.146;2022-10-28T17:19:07;12.38;;;4.68;;
823;SDS011;373;49.342;8.146;2022-10-28T17:21:34;9.70;;;5.00;;
823;SDS011;373;49.342;8.146;2022-10-28T17:24:02;8.85;;;4.82;;
823;SDS011;373;49.342;8.146;2022-10-28T17:26:30;9.32;;;4.40;;
823;SDS011;373;49.342;8.146;2022-10-28T17:28:58;10.65;;;5.40;;
823;SDS011;373;49.342;8.146;2022-10-28T17:31:25;9.48;;;4.38;;
823;SDS011;373;49.342;8.146;2022-10-28T17:33:52;14.68;;;5.13;;
823;SDS011;373;49.342;8.146;2022-10-28T17:36:20;10.38;;;5.07;;
823;SDS011;373;49.342;8.146;2022-10-28T17:38:48;9.93;;;4.93;;
823;SDS011;373;49.342;8.146;2022-10-28T17:41:15;9.27;;;5.05;;
823;SDS011;373;49.342;8.146;2022-10-28T17:43:43;10.15;;;5.55;;
823;SDS011;373;49.342;8.146;2022-10-28T18:11:31;8.25;;;5.47;;
823;SDS011;373;49.342;8.146;2022-10-28T18:14:02;9.23;;;5.43;;
823;SDS011;373;49.342;8.146;2022-10-28T18:16:29;11.18;;;6.75;;
823;SDS011;373;49.342;8.146;2022-10-28T18:19:01;8.15;;;5.85;;
823;SDS011;373;49.342;8.146;2022-10-28T18:21:29;11.48;;;5.85;;
823;SDS011;373;49.342;8.146;2022-10-28T18:23:56;10.48;;;5.82;;
823;SDS011;373;49.342;8.146;2022-10-28T18:26:28;16.05;;;6.45;;
823;SDS011;373;49.342;8.146;2022-10-28T18:28:58;8.55;;;4.70;;
823;SDS011;373;49.342;8.146;2022-10-28T18:31:28;9.30;;;4.63;;
823;SDS011;373;49.342;8.146;2022-10-28T18:33:56;11.00;;;5.55;;
823;SDS011;373;49.342;8.146;2022-10-28T18:36:25;7.93;;;4.88;;
823;SDS011;373;49.342;8.146;2022-10-28T18:38:55;15.18;;;4.85;;
823;SDS011;373;49.342;8.146;2022-10-28T18:41:23;9.18;;;4.53;;
823;SDS011;373;49.342;8.146;2022-10-28T18:43:52;9.52;;;4.93;;
823;SDS011;373;49.342;8.146;2022-10-28T18:46:21;7.22;;;4.68;;
823;SDS011;373;49.342;8.146;2022-10-28T18:48:49;6.78;;;3.92;;
823;SDS011;373;49.342;8.146;2022-10-28T18:51:17;11.05;;;3.88;;
823;SDS011;373;49.342;8.146;2022-10-28T18:53:45;8.02;;;4.32;;
823;SDS011;373;49.342;8.146;2022-10-28T18:56:14;13.77;;;3.80;;
823;SDS011;373;49.342;8.146;2022-10-28T18:58:42;8.02;;;3.60;;
823;SDS011;373;49.342;8.146;2022-10-28T19:01:13;10.07;;;4.65;;
823;SDS011;373;49.342;8.146;2022-10-28T19:03:43;7.32;;;4.35;;
823;SDS011;373;49.342;8.146;2022-10-28T19:06:13;10.55;;;4.28;;
823;SDS011;373;49.342;8.146;2022-10-28T19:08:41;11.00;;;4.28;;
823;SDS011;373;49.342;8.146;2022-10-28T19:11:10;7.55;;;3.60;;
823;SDS011;373;49.342;8.146;2022-10-28T19:13:38;9.10;;;4.00;;
823;SDS011;373;49.342;8.146;2022-10-28T19:16:07;10.82;;;4.43;;
823;SDS011;373;49.342;8.146;2022-10-28T19:18:34;10.55;;;3.88;;
823;SDS011;373;49.342;8.146;2022-10-28T19:21:05;7.93;;;3.85;;
823;SDS011;373;49.342;8.146;2022-10-28T19:23:35;7.13;;;3.95;;
823;SDS011;373;49.342;8.146;2022-10-28T19:26:02;10.95;;;4.20;;